createdAt,value
2022-12-07T00:00:16.915Z,8.67
2022-12-07T00:02:43.582Z,9.73
2022-12-07T00:05:10.281Z,10.27
2022-12-07T00:07:36.989Z,9.50
2022-12-07T00:10:04.081Z,8.47
2022-12-07T00:12:30.868Z,9.73
2022-12-07T00:14:57.508Z,9.70
2022-12-07T00:17:24.192Z,10.27
2022-12-07T00:19:50.828Z,10.27
2022-12-07T00:22:17.490Z,10.13
2022-12-07T00:24:44.131Z,7.10
2022-12-07T00:27:10.799Z,8.20
2022-12-07T00:29:37.877Z,8.97
2022-12-07T00:32:04.990Z,6.90
2022-12-07T00:34:31.730Z,7.40
2022-12-07T00:36:58.393Z,8.90
2022-12-07T00:39:25.034Z,10.63
2022-12-07T00:41:51.687Z,9.27
2022-12-07T00:44:18.334Z,8.33
2022-12-07T00:46:46.348Z,8.50
2022-12-07T00:49:13.026Z,7.60
2022-12-07T00:51:39.691Z,9.33
2022-12-07T00:54:06.445Z,9.53
2022-12-07T00:56:33.237Z,10.57
2022-12-07T00:59:02.097Z,9.60
2022-12-07T01:01:31.889Z,15.00
2022-12-07T01:03:58.746Z,10.17
2022-12-07T01:06:26.545Z,11.87
2022-12-07T01:08:53.814Z,8.57
2022-12-07T01:11:24.148Z,9.40
2022-12-07T01:13:52.437Z,9.33
2022-12-07T01:16:19.935Z,8.47
2022-12-07T01:18:49.353Z,9.47
2022-12-07T01:21:19.131Z,9.73
2022-12-07T01:23:45.877Z,9.97
2022-12-07T01:26:14.736Z,7.43
2022-12-07T01:28:41.952Z,12.47
2022-12-07T01:31:12.708Z,10.80
2022-12-07T01:33:40.518Z,8.63
2022-12-07T01:36:17.387Z,8.83
2022-12-07T01:38:44.639Z,9.37
2022-12-07T01:41:12.343Z,9.40
2022-12-07T01:44:10.740Z,16.47
2022-12-07T01:46:37.662Z,8.93
2022-12-07T01:49:11.323Z,10.20
2022-12-07T01:51:41.080Z,13.93
2022-12-07T01:54:09.033Z,9.60
2022-12-07T01:56:36.843Z,9.57
2022-12-07T01:59:03.533Z,9.80
2022-12-07T02:01:30.344Z,8.13
2022-12-07T02:03:57.627Z,9.17
2022-12-07T02:06:26.730Z,9.83
2022-12-07T02:08:54.382Z,9.20
2022-12-07T02:11:22.051Z,8.07
2022-12-07T02:13:49.286Z,7.60
2022-12-07T02:16:32.824Z,8.83
2022-12-07T02:19:24.557Z,10.07
2022-12-07T02:22:09.241Z,8.87
2022-12-07T02:25:09.799Z,11.87
2022-12-07T02:27:51.239Z,8.23
2022-12-07T02:30:22.277Z,10.40
2022-12-07T02:33:22.622Z,7.10
2022-12-07T02:36:00.216Z,7.73
2022-12-07T02:38:34.599Z,9.07
2022-12-07T02:41:14.520Z,9.17
2022-12-07T02:43:46.909Z,8.93
2022-12-07T02:46:21.663Z,9.07
2022-12-07T02:48:50.669Z,9.57
2022-12-07T02:51:19.386Z,15.00
2022-12-07T02:53:46.406Z,11.77
2022-12-07T02:56:16.056Z,7.83
2022-12-07T02:59:01.393Z,10.67
2022-12-07T03:01:54.342Z,9.43
2022-12-07T03:04:29.991Z,11.70
2022-12-07T03:07:15.299Z,8.43
2022-12-07T03:10:00.636Z,8.43
2022-12-07T03:12:43.336Z,9.73
2022-12-07T03:15:16.209Z,8.77
2022-12-07T03:17:46.266Z,10.23
2022-12-07T03:20:18.549Z,7.93
2022-12-07T03:22:46.764Z,9.80
2022-12-07T03:25:16.055Z,8.57
2022-12-07T03:27:50.639Z,10.07
2022-12-07T03:30:40.448Z,8.13
2022-12-07T03:33:09.754Z,8.90
2022-12-07T03:35:49.776Z,10.63
2022-12-07T03:38:29.265Z,10.30
2022-12-07T03:41:20.491Z,7.90
2022-12-07T03:43:47.369Z,9.43
2022-12-07T03:46:55.743Z,9.00
2022-12-07T03:49:32.017Z,9.83
2022-12-07T03:52:12.698Z,11.93
2022-12-07T03:54:45.749Z,9.30
2022-12-07T03:57:13.595Z,9.83
2022-12-07T03:59:41.060Z,9.47
2022-12-07T04:02:08.532Z,9.30
2022-12-07T04:04:35.760Z,11.83
2022-12-07T04:07:02.711Z,8.57
2022-12-07T04:09:29.532Z,9.27
2022-12-07T04:11:56.216Z,10.60
2022-12-07T04:14:23.140Z,8.70
2022-12-07T04:16:52.463Z,9.47
2022-12-07T04:19:21.060Z,9.63
2022-12-07T04:21:48.593Z,10.40
2022-12-07T04:24:16.437Z,8.97
2022-12-07T04:26:44.517Z,10.70
2022-12-07T04:29:11.636Z,10.97
2022-12-07T04:31:38.890Z,8.20
2022-12-07T04:34:06.148Z,9.70
2022-12-07T04:36:33.385Z,10.60
2022-12-07T04:39:00.084Z,8.17
2022-12-07T04:41:29.614Z,9.90
2022-12-07T04:43:57.902Z,11.43
2022-12-07T04:46:25.583Z,9.90
2022-12-07T04:48:53.718Z,9.63
2022-12-07T04:51:26.617Z,10.43
2022-12-07T04:53:53.490Z,9.57
2022-12-07T04:56:20.389Z,12.07
2022-12-07T04:58:48.981Z,12.53
2022-12-07T05:01:17.824Z,9.13
2022-12-07T05:03:45.109Z,10.57
2022-12-07T05:06:13.801Z,8.57
2022-12-07T05:08:41.510Z,9.30
2022-12-07T05:11:09.593Z,11.80
2022-12-07T05:13:37.208Z,11.13
2022-12-07T05:16:04.189Z,8.97
2022-12-07T05:18:30.865Z,9.50
2022-12-07T05:20:57.520Z,13.33
2022-12-07T05:23:24.191Z,9.83
2022-12-07T05:25:51.041Z,9.37
2022-12-07T05:28:17.745Z,9.77
2022-12-07T05:30:44.398Z,9.53
2022-12-07T05:33:11.074Z,10.33
2022-12-07T05:35:38.777Z,11.10
2022-12-07T05:38:05.498Z,10.67
2022-12-07T05:40:32.352Z,10.10
2022-12-07T05:43:04.256Z,15.63
2022-12-07T05:45:31.848Z,8.17
2022-12-07T05:47:58.674Z,9.23
2022-12-07T05:50:25.590Z,8.73
2022-12-07T05:53:00.949Z,10.43
2022-12-07T05:55:27.602Z,8.83
2022-12-07T05:58:13.160Z,11.20
2022-12-07T06:00:39.906Z,11.80
2022-12-07T06:03:06.703Z,10.13
2022-12-07T06:05:33.413Z,12.97
2022-12-07T06:08:05.502Z,11.23
2022-12-07T06:10:32.869Z,10.63
2022-12-07T06:12:59.575Z,12.40
2022-12-07T06:15:26.406Z,12.13
2022-12-07T06:17:53.090Z,13.20
2022-12-07T06:20:19.816Z,10.27
2022-12-07T06:22:46.580Z,12.07
2022-12-07T06:25:13.254Z,10.23
2022-12-07T06:27:39.925Z,10.93
2022-12-07T06:30:09.411Z,12.60
2022-12-07T06:32:38.265Z,10.97
2022-12-07T06:35:05.819Z,13.63
2022-12-07T06:37:32.630Z,13.07
2022-12-07T06:39:59.450Z,11.33
2022-12-07T06:42:26.466Z,13.10
2022-12-07T06:44:53.099Z,11.53
2022-12-07T06:50:08.540Z,18.43
2022-12-07T06:52:35.687Z,15.90
2022-12-07T06:55:02.333Z,12.53
2022-12-07T06:57:29.010Z,15.43
2022-12-07T06:59:55.764Z,13.17
2022-12-07T07:02:22.574Z,15.13
2022-12-07T07:04:49.305Z,13.97
2022-12-07T07:07:15.964Z,14.50
2022-12-07T07:09:42.685Z,14.43
2022-12-07T07:12:09.393Z,12.77
2022-12-07T07:14:36.704Z,14.13
2022-12-07T07:17:03.397Z,14.30
2022-12-07T07:19:30.140Z,12.83
2022-12-07T07:21:56.815Z,19.90
2022-12-07T07:24:23.458Z,14.13
2022-12-07T07:26:50.112Z,15.77
2022-12-07T07:29:16.764Z,14.90
2022-12-07T07:31:43.469Z,13.93
2022-12-07T07:34:10.255Z,14.80
2022-12-07T07:36:36.899Z,15.60
2022-12-07T07:39:03.928Z,14.83
2022-12-07T07:41:30.597Z,14.60
2022-12-07T07:43:57.376Z,19.10
2022-12-07T07:46:24.210Z,13.43
2022-12-07T07:48:50.895Z,13.33
2022-12-07T07:51:17.631Z,15.07
2022-12-07T07:53:44.278Z,16.57
2022-12-07T07:56:10.986Z,12.70
2022-12-07T07:58:37.647Z,15.07
2022-12-07T08:01:08.953Z,17.33
2022-12-07T08:03:35.979Z,14.00
2022-12-07T08:06:04.371Z,14.47
2022-12-07T08:08:31.286Z,15.10
2022-12-07T08:11:01.236Z,14.80
2022-12-07T08:13:31.247Z,14.70
2022-12-07T08:15:59.066Z,14.43
2022-12-07T08:18:25.827Z,15.50
2022-12-07T08:20:52.489Z,17.07
2022-12-07T08:23:19.175Z,17.43
2022-12-07T08:25:45.812Z,17.90
2022-12-07T08:28:12.513Z,15.27
2022-12-07T08:30:39.228Z,16.47
2022-12-07T08:33:06.005Z,16.77
2022-12-07T08:35:35.000Z,15.00
2022-12-07T08:38:03.124Z,16.73
2022-12-07T08:40:30.062Z,15.93
2022-12-07T08:42:56.843Z,15.70
2022-12-07T08:45:26.917Z,23.47
2022-12-07T08:48:05.032Z,15.30
2022-12-07T08:50:33.759Z,16.73
2022-12-07T08:53:01.798Z,16.83
2022-12-07T08:55:29.346Z,17.70
2022-12-07T08:57:56.395Z,14.30
2022-12-07T09:00:23.217Z,15.07
2022-12-07T09:02:49.898Z,17.33
2022-12-07T09:05:17.230Z,18.67
2022-12-07T09:07:50.328Z,17.63
2022-12-07T09:10:17.114Z,14.33
2022-12-07T09:12:43.887Z,15.10
2022-12-07T09:15:10.621Z,14.67
2022-12-07T09:17:38.100Z,13.13
2022-12-07T09:20:06.705Z,12.20
2022-12-07T09:22:33.457Z,15.07
2022-12-07T09:25:00.711Z,17.07
2022-12-07T09:27:28.088Z,16.60
2022-12-07T09:29:54.770Z,16.77
2022-12-07T09:32:21.916Z,20.83
2022-12-07T09:34:48.693Z,14.03
2022-12-07T09:37:15.485Z,17.53
2022-12-07T09:39:49.467Z,13.73
2022-12-07T09:42:40.610Z,16.33
2022-12-07T09:45:13.058Z,20.23
2022-12-07T09:47:39.787Z,18.60
2022-12-07T09:50:13.861Z,16.33
2022-12-07T09:52:41.310Z,16.10
2022-12-07T09:55:16.781Z,14.10
2022-12-07T09:57:45.136Z,17.33
2022-12-07T10:00:17.943Z,14.50
2022-12-07T10:02:48.258Z,18.47
2022-12-07T10:05:24.077Z,17.10
2022-12-07T10:07:51.745Z,14.90
2022-12-07T10:10:35.284Z,11.83
2022-12-07T10:13:08.179Z,14.20
2022-12-07T10:15:47.872Z,14.50
2022-12-07T10:18:29.525Z,14.50
2022-12-07T10:21:08.497Z,17.63
2022-12-07T10:23:36.520Z,17.23
2022-12-07T10:26:31.506Z,13.47
2022-12-07T10:29:17.910Z,15.80
2022-12-07T10:31:46.675Z,16.10
2022-12-07T10:34:41.398Z,13.23
2022-12-07T10:37:17.657Z,12.37
2022-12-07T10:39:53.737Z,13.57
2022-12-07T10:42:24.802Z,14.23
2022-12-07T10:45:16.123Z,11.23
2022-12-07T10:48:07.295Z,16.20
2022-12-07T10:50:58.622Z,33.10
2022-12-07T10:54:03.428Z,27.97
2022-12-07T10:56:40.237Z,12.87
2022-12-07T10:59:15.845Z,11.47
2022-12-07T11:02:01.155Z,10.27
2022-12-07T11:04:42.664Z,10.93
2022-12-07T11:07:14.141Z,13.20
2022-12-07T11:10:09.671Z,12.33
2022-12-07T11:13:11.036Z,13.30
2022-12-07T11:16:03.855Z,10.23
2022-12-07T11:19:00.233Z,10.53
2022-12-07T11:21:32.849Z,10.93
2022-12-07T11:24:11.083Z,9.70
2022-12-07T11:27:02.499Z,9.13
2022-12-07T11:29:59.567Z,10.37
2022-12-07T11:32:32.283Z,7.57
2022-12-07T11:35:17.103Z,9.57
2022-12-07T11:37:45.069Z,35.63
2022-12-07T11:40:35.732Z,8.33
2022-12-07T11:43:25.410Z,9.87
2022-12-07T11:46:11.877Z,7.83
2022-12-07T11:48:46.768Z,7.87
2022-12-07T11:51:14.216Z,7.03
2022-12-07T11:53:43.034Z,7.87
2022-12-07T11:56:19.003Z,14.60
2022-12-07T11:58:51.685Z,8.80
2022-12-07T12:01:28.092Z,9.67
2022-12-07T12:03:57.689Z,10.07
2022-12-07T12:06:24.464Z,8.33
2022-12-07T12:15:29.914Z,8.47
2022-12-07T12:18:05.559Z,8.87
2022-12-07T12:20:45.203Z,12.23
2022-12-07T12:23:23.213Z,10.23
2022-12-07T12:25:56.843Z,8.00
2022-12-07T12:28:45.317Z,7.47
2022-12-07T12:31:21.564Z,9.70
2022-12-07T12:33:49.571Z,7.90
2022-12-07T12:36:19.106Z,9.23
2022-12-07T12:39:07.437Z,7.33
2022-12-07T12:41:41.835Z,9.23
2022-12-07T12:44:18.963Z,14.27
2022-12-07T12:46:53.368Z,6.93
2022-12-07T12:49:20.213Z,8.10
2022-12-07T12:52:21.096Z,8.53
2022-12-07T12:55:15.696Z,6.97
2022-12-07T12:57:42.409Z,9.87
2022-12-07T13:00:23.727Z,7.10
2022-12-07T13:03:00.720Z,7.70
2022-12-07T13:05:32.115Z,15.10
2022-12-07T13:08:03.382Z,9.13
2022-12-07T13:10:30.067Z,10.93
2022-12-07T13:12:58.005Z,5.70
2022-12-07T13:15:41.143Z,7.57
2022-12-07T13:18:29.314Z,8.40
2022-12-07T13:21:22.879Z,11.70
2022-12-07T13:23:51.069Z,10.03
2022-12-07T13:26:40.583Z,8.00
2022-12-07T13:29:24.197Z,7.50
2022-12-07T13:31:53.704Z,7.17
2022-12-07T13:34:41.459Z,6.77
2022-12-07T13:37:26.764Z,11.37
2022-12-07T13:39:59.717Z,6.20
2022-12-07T13:42:34.436Z,5.17
2022-12-07T13:45:21.919Z,5.47
2022-12-07T13:47:58.394Z,5.50
2022-12-07T13:50:28.182Z,5.20
2022-12-07T13:53:02.068Z,4.63
2022-12-07T13:55:30.783Z,6.70
2022-12-07T13:57:57.661Z,7.83
2022-12-07T14:00:27.362Z,8.23
2022-12-07T14:03:13.784Z,5.33
2022-12-07T14:05:42.993Z,10.80
2022-12-07T14:08:12.516Z,8.10
2022-12-07T14:10:51.468Z,9.13
2022-12-07T14:13:36.863Z,8.30
2022-12-07T14:16:24.294Z,6.83
2022-12-07T14:18:50.998Z,9.60
2022-12-07T14:21:20.431Z,6.03
2022-12-07T14:24:19.493Z,5.87
2022-12-07T14:26:48.558Z,7.57
2022-12-07T14:29:34.644Z,7.40
2022-12-07T14:32:28.938Z,5.37
2022-12-07T14:35:02.046Z,6.47
2022-12-07T14:37:30.280Z,8.17
2022-12-07T14:39:57.709Z,6.43
2022-12-07T14:42:28.336Z,8.27
2022-12-07T14:44:55.474Z,10.17
2022-12-07T14:50:12.634Z,28.07
2022-12-07T14:55:29.733Z,6.77
2022-12-07T14:57:56.833Z,7.37
2022-12-07T15:00:25.509Z,5.83
2022-12-07T15:02:53.312Z,8.07
2022-12-07T15:05:20.207Z,5.80
2022-12-07T15:07:48.439Z,12.43
2022-12-07T15:10:23.881Z,6.93
2022-12-07T15:12:51.947Z,6.23
2022-12-07T15:15:18.727Z,5.83
2022-12-07T15:17:45.425Z,6.13
2022-12-07T15:20:17.690Z,7.13
2022-12-07T15:22:44.639Z,4.20
2022-12-07T15:25:14.930Z,6.23
2022-12-07T15:27:42.154Z,8.63
2022-12-07T15:30:09.323Z,7.50
2022-12-07T15:32:36.100Z,8.70
2022-12-07T15:35:03.120Z,7.20
2022-12-07T15:37:30.056Z,5.43
2022-12-07T15:39:56.758Z,7.37
2022-12-07T15:42:23.502Z,7.23
2022-12-07T15:45:06.001Z,6.10
2022-12-07T15:48:11.672Z,7.40
2022-12-07T15:50:26.527Z,11.87
2022-12-07T15:52:53.220Z,7.70
2022-12-07T15:55:19.951Z,8.10
2022-12-07T15:57:46.612Z,8.77
2022-12-07T16:00:14.690Z,9.60
2022-12-07T16:02:41.551Z,6.83
2022-12-07T16:05:08.329Z,9.13
2022-12-07T16:07:35.145Z,8.33
2022-12-07T16:10:01.805Z,6.93
2022-12-07T16:12:28.545Z,6.90
2022-12-07T16:14:55.193Z,7.57
2022-12-07T16:17:21.906Z,7.00
2022-12-07T16:19:48.642Z,10.57
2022-12-07T16:22:15.333Z,8.47
2022-12-07T16:24:42.098Z,7.50
2022-12-07T16:27:08.790Z,7.70
2022-12-07T16:29:35.819Z,9.10
2022-12-07T16:32:02.551Z,8.60
2022-12-07T16:34:29.203Z,12.50
2022-12-07T16:37:04.912Z,15.23
2022-12-07T16:39:33.853Z,10.17
2022-12-07T16:42:00.731Z,8.80
2022-12-07T16:44:27.475Z,11.13
2022-12-07T16:46:54.264Z,8.50
2022-12-07T16:49:20.931Z,7.43
2022-12-07T16:52:08.581Z,9.47
2022-12-07T16:54:37.699Z,10.77
2022-12-07T16:57:04.383Z,8.83
2022-12-07T16:59:31.185Z,9.63
2022-12-07T17:01:57.884Z,9.53
2022-12-07T17:04:24.581Z,9.77
2022-12-07T17:06:51.303Z,9.30
2022-12-07T17:09:21.298Z,10.17
2022-12-07T17:11:48.798Z,10.57
2022-12-07T17:14:34.003Z,9.67
2022-12-07T17:17:00.763Z,12.03
2022-12-07T17:19:27.485Z,10.77
2022-12-07T17:21:54.146Z,11.20
2022-12-07T17:24:20.794Z,8.97
2022-12-07T17:26:48.020Z,13.20
2022-12-07T17:29:16.868Z,12.00
2022-12-07T17:31:50.666Z,9.47
2022-12-07T17:34:19.040Z,8.33
2022-12-07T17:36:46.170Z,8.33
2022-12-07T17:39:16.458Z,9.73
2022-12-07T17:42:01.972Z,10.57
2022-12-07T17:44:28.985Z,9.27
2022-12-07T17:46:58.271Z,11.27
2022-12-07T17:49:26.594Z,13.17
2022-12-07T17:52:11.900Z,15.03
2022-12-07T17:54:38.556Z,14.60
2022-12-07T17:57:05.473Z,14.63
2022-12-07T17:59:32.173Z,10.43
2022-12-07T18:01:58.913Z,10.07
2022-12-07T18:04:25.689Z,9.00
2022-12-07T18:06:52.975Z,8.90
2022-12-07T18:09:21.921Z,11.07
2022-12-07T18:11:48.639Z,10.63
2022-12-07T18:14:16.580Z,11.70
2022-12-07T18:16:43.891Z,8.17
2022-12-07T18:19:13.455Z,8.20
2022-12-07T18:21:40.510Z,8.60
2022-12-07T18:24:08.974Z,7.20
2022-12-07T18:26:37.347Z,10.17
2022-12-07T18:29:06.020Z,8.73
2022-12-07T18:31:33.237Z,8.57
2022-12-07T18:34:05.262Z,8.77
2022-12-07T18:36:32.128Z,8.53
2022-12-07T18:38:58.790Z,13.67
2022-12-07T18:41:25.767Z,15.47
2022-12-07T18:43:52.479Z,9.30
2022-12-07T18:46:21.135Z,8.97
2022-12-07T18:48:49.437Z,13.83
2022-12-07T18:51:17.256Z,12.40
2022-12-07T18:53:44.337Z,11.13
2022-12-07T18:56:17.089Z,14.20
2022-12-07T18:59:03.274Z,11.93
2022-12-07T19:01:31.422Z,12.07
2022-12-07T19:03:59.226Z,16.70
2022-12-07T19:06:26.624Z,8.83
2022-12-07T19:08:54.491Z,9.50
2022-12-07T19:11:50.715Z,7.93
2022-12-07T19:14:22.202Z,10.10
2022-12-07T19:16:50.601Z,9.40
2022-12-07T19:19:19.608Z,13.43
2022-12-07T19:21:46.923Z,12.40
2022-12-07T19:24:18.309Z,14.50
2022-12-07T19:26:48.232Z,17.30
2022-12-07T19:29:14.889Z,18.93
2022-12-07T19:31:41.718Z,17.97
2022-12-07T19:34:12.947Z,15.53
2022-12-07T19:36:39.753Z,27.80
2022-12-07T19:39:11.297Z,26.27
2022-12-07T19:41:43.605Z,21.17
2022-12-07T19:44:15.970Z,19.77
2022-12-07T19:46:46.429Z,15.73
2022-12-07T19:49:16.829Z,15.90
2022-12-07T19:51:46.284Z,16.67
2022-12-07T19:54:14.934Z,14.17
2022-12-07T19:56:43.262Z,12.70
2022-12-07T19:59:11.159Z,12.97
2022-12-07T20:01:40.433Z,12.57
2022-12-07T20:04:10.716Z,14.57
2022-12-07T20:06:37.584Z,14.60
2022-12-07T20:09:05.102Z,21.50
2022-12-07T20:11:50.914Z,18.00
2022-12-07T20:14:17.877Z,19.70
2022-12-07T20:16:45.646Z,17.90
2022-12-07T20:19:13.503Z,17.80
2022-12-07T20:21:41.257Z,16.90
2022-12-07T20:24:11.483Z,13.67
2022-12-07T20:26:41.152Z,15.27
2022-12-07T20:29:14.745Z,11.40
2022-12-07T20:31:44.458Z,13.33
2022-12-07T20:34:11.867Z,14.67
2022-12-07T20:36:38.857Z,12.93
2022-12-07T20:39:06.345Z,14.00
2022-12-07T20:41:56.258Z,13.73
2022-12-07T20:44:22.905Z,13.60
2022-12-07T20:46:50.481Z,14.73
2022-12-07T20:49:18.335Z,14.07
2022-12-07T20:51:46.345Z,16.70
2022-12-07T20:54:13.982Z,13.83
2022-12-07T20:56:40.979Z,14.67
2022-12-07T20:59:09.815Z,15.83
2022-12-07T21:01:37.285Z,13.87
2022-12-07T21:04:04.607Z,11.50
2022-12-07T21:06:31.597Z,12.27
2022-12-07T21:08:59.917Z,13.97
2022-12-07T21:11:28.747Z,14.27
2022-12-07T21:13:55.541Z,15.63
2022-12-07T21:16:24.866Z,16.17
2022-12-07T21:18:52.260Z,16.70
2022-12-07T21:21:20.365Z,20.63
2022-12-07T21:23:49.099Z,19.27
2022-12-07T21:26:21.226Z,19.23
2022-12-07T21:28:49.418Z,15.77
2022-12-07T21:31:16.475Z,14.20
2022-12-07T21:33:44.248Z,18.90
2022-12-07T21:36:17.257Z,15.47
2022-12-07T21:38:43.907Z,15.53
2022-12-07T21:41:21.080Z,14.50
2022-12-07T21:43:48.360Z,17.67
2022-12-07T21:46:16.453Z,20.70
2022-12-07T21:48:43.549Z,18.60
2022-12-07T21:51:12.709Z,13.27
2022-12-07T21:53:40.990Z,16.77
2022-12-07T21:56:26.584Z,18.27
2022-12-07T21:58:54.845Z,19.17
2022-12-07T22:01:25.275Z,16.27
2022-12-07T22:03:52.881Z,14.93
2022-12-07T22:06:22.929Z,17.77
2022-12-07T22:08:50.034Z,16.60
2022-12-07T22:11:16.990Z,16.77
2022-12-07T22:14:09.588Z,17.47
2022-12-07T22:16:37.064Z,17.07
2022-12-07T22:19:04.018Z,19.77
2022-12-07T22:21:31.277Z,16.90
2022-12-07T22:23:58.301Z,17.73
2022-12-07T22:26:25.377Z,22.47
2022-12-07T22:28:52.141Z,19.43
2022-12-07T22:31:21.734Z,17.43
2022-12-07T22:33:48.866Z,15.43
2022-12-07T22:36:16.588Z,18.33
2022-12-07T22:38:43.592Z,21.17
2022-12-07T22:41:15.552Z,19.47
2022-12-07T22:43:42.308Z,17.40
2022-12-07T22:46:10.379Z,22.47
2022-12-07T22:48:37.144Z,19.17
2022-12-07T22:51:04.114Z,17.13
2022-12-07T22:53:31.053Z,20.67
2022-12-07T22:55:57.784Z,16.90
2022-12-07T22:58:24.483Z,21.43
2022-12-07T23:00:53.914Z,18.00
2022-12-07T23:03:20.698Z,20.47
2022-12-07T23:05:49.016Z,19.80
2022-12-07T23:08:16.491Z,18.50
2022-12-07T23:10:48.544Z,17.43
2022-12-07T23:13:32.668Z,21.03
2022-12-07T23:16:17.543Z,17.77
2022-12-07T23:18:44.199Z,19.37
2022-12-07T23:21:10.893Z,17.90
2022-12-07T23:23:37.560Z,21.30
2022-12-07T23:26:06.755Z,18.20
2022-12-07T23:28:34.384Z,18.43
2022-12-07T23:31:02.851Z,20.43
2022-12-07T23:33:29.608Z,17.33
2022-12-07T23:35:56.360Z,17.83
2022-12-07T23:38:23.037Z,19.90
2022-12-07T23:40:49.708Z,22.33
2022-12-07T23:43:16.483Z,18.63
2022-12-07T23:45:46.904Z,15.47
2022-12-07T23:48:13.604Z,15.77
2022-12-07T23:50:40.281Z,18.47
2022-12-07T23:53:07.010Z,17.40
2022-12-07T23:55:33.659Z,14.97
2022-12-07T23:58:00.333Z,16.03
